sensor_id;sensor_type;location;lat;lon;timestamp;temperature;humidity
63047;DHT22;62025;39.238;9.126;2023-02-01T00:00:20;10.80;72.10
63047;DHT22;62025;39.238;9.126;2023-02-01T00:02:46;10.80;71.80
63047;DHT22;62025;39.238;9.126;2023-02-01T00:05:13;10.80;71.60
63047;DHT22;62025;39.238;9.126;2023-02-01T00:07:40;10.80;71.60
63047;DHT22;62025;39.238;9.126;2023-02-01T00:10:06;10.80;71.30
63047;DHT22;62025;39.238;9.126;2023-02-01T00:12:33;10.80;71.20
63047;DHT22;62025;39.238;9.126;2023-02-01T00:14:59;10.80;71.30
63047;DHT22;62025;39.238;9.126;2023-02-01T00:17:25;10.80;71.50
63047;DHT22;62025;39.238;9.126;2023-02-01T00:19:51;10.70;71.70
63047;DHT22;62025;39.238;9.126;2023-02-01T00:22:17;10.80;71.80
63047;DHT22;62025;39.238;9.126;2023-02-01T00:24:43;10.80;71.70
63047;DHT22;62025;39.238;9.126;2023-02-01T00:27:17;10.70;72.00
63047;DHT22;62025;39.238;9.126;2023-02-01T00:29:46;10.80;71.90
63047;DHT22;62025;39.238;9.126;2023-02-01T00:32:12;10.80;71.80
63047;DHT22;62025;39.238;9.126;2023-02-01T00:34:38;10.70;71.90
63047;DHT22;62025;39.238;9.126;2023-02-01T00:37:04;10.70;71.80
63047;DHT22;62025;39.238;9.126;2023-02-01T00:39:30;10.70;71.80
63047;DHT22;62025;39.238;9.126;2023-02-01T00:41:56;10.60;71.70
63047;DHT22;62025;39.238;9.126;2023-02-01T00:44:22;10.60;71.90
63047;DHT22;62025;39.238;9.126;2023-02-01T00:46:48;10.60;71.80
63047;DHT22;62025;39.238;9.126;2023-02-01T00:49:14;10.60;71.70
63047;DHT22;62025;39.238;9.126;2023-02-01T00:51:40;10.50;71.70
63047;DHT22;62025;39.238;9.126;2023-02-01T00:54:06;10.50;71.60
63047;DHT22;62025;39.238;9.126;2023-02-01T00:56:32;10.40;71.80
63047;DHT22;62025;39.238;9.126;2023-02-01T00:58:58;10.40;71.70
63047;DHT22;62025;39.238;9.126;2023-02-01T01:01:26;10.30;71.90
63047;DHT22;62025;39.238;9.126;2023-02-01T01:03:59;10.40;71.80
63047;DHT22;62025;39.238;9.126;2023-02-01T01:06:28;10.30;71.90
63047;DHT22;62025;39.238;9.126;2023-02-01T01:08:58;10.30;72.10
63047;DHT22;62025;39.238;9.126;2023-02-01T01:11:30;10.30;72.00
63047;DHT22;62025;39.238;9.126;2023-02-01T01:13:59;10.30;72.10
63047;DHT22;62025;39.238;9.126;2023-02-01T01:16:28;10.30;72.20
63047;DHT22;62025;39.238;9.126;2023-02-01T01:18:55;10.30;72.10
63047;DHT22;62025;39.238;9.126;2023-02-01T01:21:24;10.30;71.90
63047;DHT22;62025;39.238;9.126;2023-02-01T01:23:50;10.30;71.90
63047;DHT22;62025;39.238;9.126;2023-02-01T01:26:19;10.30;71.80
63047;DHT22;62025;39.238;9.126;2023-02-01T01:28:50;10.30;71.60
63047;DHT22;62025;39.238;9.126;2023-02-01T01:31:18;10.30;71.60
63047;DHT22;62025;39.238;9.126;2023-02-01T01:33:47;10.30;71.40
63047;DHT22;62025;39.238;9.126;2023-02-01T01:36:17;10.30;71.30
63047;DHT22;62025;39.238;9.126;2023-02-01T01:38:43;10.30;71.20
63047;DHT22;62025;39.238;9.126;2023-02-01T01:41:14;10.30;71.00
63047;DHT22;62025;39.238;9.126;2023-02-01T01:43:49;10.30;70.90
63047;DHT22;62025;39.238;9.126;2023-02-01T01:46:22;10.20;70.70
63047;DHT22;62025;39.238;9.126;2023-02-01T01:49:14;10.20;70.80
63047;DHT22;62025;39.238;9.126;2023-02-01T01:51:48;10.10;70.70
63047;DHT22;62025;39.238;9.126;2023-02-01T01:54:37;10.10;70.70
63047;DHT22;62025;39.238;9.126;2023-02-01T01:57:11;10.10;70.90
63047;DHT22;62025;39.238;9.126;2023-02-01T01:59:47;10.10;70.90
63047;DHT22;62025;39.238;9.126;2023-02-01T02:02:17;10.00;71.00
63047;DHT22;62025;39.238;9.126;2023-02-01T02:04:46;9.90;71.40
63047;DHT22;62025;39.238;9.126;2023-02-01T02:07:19;9.90;71.40
63047;DHT22;62025;39.238;9.126;2023-02-01T02:09:48;10.00;71.50
63047;DHT22;62025;39.238;9.126;2023-02-01T02:12:14;10.00;71.40
63047;DHT22;62025;39.238;9.126;2023-02-01T02:14:40;9.90;71.60
63047;DHT22;62025;39.238;9.126;2023-02-01T02:32:24;9.80;72.20
63047;DHT22;62025;39.238;9.126;2023-02-01T02:35:15;9.70;72.10
63047;DHT22;62025;39.238;9.126;2023-02-01T02:37:59;9.80;72.00
63047;DHT22;62025;39.238;9.126;2023-02-01T02:40:39;9.80;71.80
63047;DHT22;62025;39.238;9.126;2023-02-01T02:43:23;9.70;71.90
63047;DHT22;62025;39.238;9.126;2023-02-01T02:46:22;9.80;71.80
63047;DHT22;62025;39.238;9.126;2023-02-01T02:49:18;9.80;71.50
63047;DHT22;62025;39.238;9.126;2023-02-01T02:51:58;9.80;71.40
63047;DHT22;62025;39.238;9.126;2023-02-01T02:54:48;9.80;71.40
63047;DHT22;62025;39.238;9.126;2023-02-01T02:57:39;9.80;71.30
63047;DHT22;62025;39.238;9.126;2023-02-01T03:00:30;9.70;71.30
63047;DHT22;62025;39.238;9.126;2023-02-01T03:03:17;9.80;71.40
63047;DHT22;62025;39.238;9.126;2023-02-01T03:06:02;9.70;71.30
63047;DHT22;62025;39.238;9.126;2023-02-01T03:08:30;9.70;71.40
63047;DHT22;62025;39.238;9.126;2023-02-01T03:11:10;9.70;71.40
63047;DHT22;62025;39.238;9.126;2023-02-01T03:21:34;9.60;71.40
63047;DHT22;62025;39.238;9.126;2023-02-01T03:24:10;9.60;71.20
63047;DHT22;62025;39.238;9.126;2023-02-01T03:26:43;9.50;71.30
63047;DHT22;62025;39.238;9.126;2023-02-01T03:29:21;9.60;71.20
63047;DHT22;62025;39.238;9.126;2023-02-01T03:31:51;9.60;71.00
63047;DHT22;62025;39.238;9.126;2023-02-01T03:34:17;9.50;71.10
63047;DHT22;62025;39.238;9.126;2023-02-01T03:36:50;9.60;71.30
63047;DHT22;62025;39.238;9.126;2023-02-01T03:39:36;9.50;71.40
63047;DHT22;62025;39.238;9.126;2023-02-01T03:42:12;9.50;71.30
63047;DHT22;62025;39.238;9.126;2023-02-01T03:47:30;9.50;71.10
63047;DHT22;62025;39.238;9.126;2023-02-01T03:50:09;9.50;71.00
63047;DHT22;62025;39.238;9.126;2023-02-01T03:53:16;9.50;71.10
63047;DHT22;62025;39.238;9.126;2023-02-01T03:55:42;9.40;71.20
63047;DHT22;62025;39.238;9.126;2023-02-01T03:58:21;9.50;71.10
63047;DHT22;62025;39.238;9.126;2023-02-01T04:00:55;9.50;71.10
63047;DHT22;62025;39.238;9.126;2023-02-01T04:03:24;9.50;71.10
63047;DHT22;62025;39.238;9.126;2023-02-01T04:05:52;9.50;71.30
63047;DHT22;62025;39.238;9.126;2023-02-01T04:08:21;9.50;71.50
63047;DHT22;62025;39.238;9.126;2023-02-01T04:10:48;9.50;71.40
63047;DHT22;62025;39.238;9.126;2023-02-01T04:13:14;9.50;71.40
63047;DHT22;62025;39.238;9.126;2023-02-01T04:15:40;9.50;71.30
63047;DHT22;62025;39.238;9.126;2023-02-01T04:18:06;9.50;71.30
63047;DHT22;62025;39.238;9.126;2023-02-01T04:20:32;9.50;71.30
63047;DHT22;62025;39.238;9.126;2023-02-01T04:22:58;9.40;71.20
63047;DHT22;62025;39.238;9.126;2023-02-01T04:25:24;9.50;71.10
63047;DHT22;62025;39.238;9.126;2023-02-01T04:27:51;9.40;71.20
63047;DHT22;62025;39.238;9.126;2023-02-01T04:30:17;9.50;71.10
63047;DHT22;62025;39.238;9.126;2023-02-01T04:32:43;9.40;71.10
63047;DHT22;62025;39.238;9.126;2023-02-01T04:35:09;9.40;71.10
63047;DHT22;62025;39.238;9.126;2023-02-01T04:37:37;9.40;70.90
63047;DHT22;62025;39.238;9.126;2023-02-01T04:40:03;9.40;70.80
63047;DHT22;62025;39.238;9.126;2023-02-01T04:42:29;9.40;70.70
63047;DHT22;62025;39.238;9.126;2023-02-01T04:44:55;9.40;70.60
63047;DHT22;62025;39.238;9.126;2023-02-01T04:47:21;9.40;70.60
63047;DHT22;62025;39.238;9.126;2023-02-01T04:49:47;9.40;70.50
63047;DHT22;62025;39.238;9.126;2023-02-01T04:52:13;9.40;70.50
63047;DHT22;62025;39.238;9.126;2023-02-01T04:54:39;9.40;70.50
63047;DHT22;62025;39.238;9.126;2023-02-01T04:57:05;9.30;70.40
63047;DHT22;62025;39.238;9.126;2023-02-01T04:59:31;9.40;70.40
63047;DHT22;62025;39.238;9.126;2023-02-01T05:01:57;9.30;70.40
63047;DHT22;62025;39.238;9.126;2023-02-01T05:04:23;9.30;70.30
63047;DHT22;62025;39.238;9.126;2023-02-01T05:06:49;9.30;70.20
63047;DHT22;62025;39.238;9.126;2023-02-01T05:09:16;9.30;70.20
63047;DHT22;62025;39.238;9.126;2023-02-01T05:11:42;9.30;70.10
63047;DHT22;62025;39.238;9.126;2023-02-01T05:14:26;9.30;70.00
63047;DHT22;62025;39.238;9.126;2023-02-01T05:16:52;9.30;69.80
63047;DHT22;62025;39.238;9.126;2023-02-01T05:19:18;9.30;69.90
63047;DHT22;62025;39.238;9.126;2023-02-01T05:21:44;9.30;69.90
63047;DHT22;62025;39.238;9.126;2023-02-01T05:24:10;9.30;69.60
63047;DHT22;62025;39.238;9.126;2023-02-01T05:26:42;9.30;69.40
63047;DHT22;62025;39.238;9.126;2023-02-01T05:29:09;9.30;69.30
63047;DHT22;62025;39.238;9.126;2023-02-01T05:31:36;9.20;69.20
63047;DHT22;62025;39.238;9.126;2023-02-01T05:34:03;9.10;69.20
63047;DHT22;62025;39.238;9.126;2023-02-01T05:36:29;9.10;69.30
63047;DHT22;62025;39.238;9.126;2023-02-01T05:38:55;9.10;69.30
63047;DHT22;62025;39.238;9.126;2023-02-01T05:41:21;9.10;69.30
63047;DHT22;62025;39.238;9.126;2023-02-01T05:43:47;9.10;69.20
63047;DHT22;62025;39.238;9.126;2023-02-01T05:46:14;9.10;69.10
63047;DHT22;62025;39.238;9.126;2023-02-01T05:48:40;9.10;69.00
63047;DHT22;62025;39.238;9.126;2023-02-01T05:51:06;9.00;69.00
63047;DHT22;62025;39.238;9.126;2023-02-01T05:53:33;9.00;69.00
63047;DHT22;62025;39.238;9.126;2023-02-01T05:55:59;9.00;69.00
63047;DHT22;62025;39.238;9.126;2023-02-01T05:58:25;9.00;68.90
63047;DHT22;62025;39.238;9.126;2023-02-01T06:00:51;9.00;69.10
63047;DHT22;62025;39.238;9.126;2023-02-01T06:03:17;8.90;69.20
63047;DHT22;62025;39.238;9.126;2023-02-01T06:05:45;8.90;69.20
63047;DHT22;62025;39.238;9.126;2023-02-01T06:08:12;9.00;69.20
63047;DHT22;62025;39.238;9.126;2023-02-01T06:10:38;8.90;69.30
63047;DHT22;62025;39.238;9.126;2023-02-01T06:13:04;8.90;69.40
63047;DHT22;62025;39.238;9.126;2023-02-01T06:15:31;8.90;69.50
63047;DHT22;62025;39.238;9.126;2023-02-01T06:17:58;8.90;69.60
63047;DHT22;62025;39.238;9.126;2023-02-01T06:20:24;8.80;69.60
63047;DHT22;62025;39.238;9.126;2023-02-01T06:22:50;8.80;69.70
63047;DHT22;62025;39.238;9.126;2023-02-01T06:25:16;8.90;69.70
63047;DHT22;62025;39.238;9.126;2023-02-01T06:27:42;8.90;69.70
63047;DHT22;62025;39.238;9.126;2023-02-01T06:30:11;8.90;69.70
63047;DHT22;62025;39.238;9.126;2023-02-01T06:32:41;8.90;69.70
63047;DHT22;62025;39.238;9.126;2023-02-01T06:35:08;8.90;69.80
63047;DHT22;62025;39.238;9.126;2023-02-01T06:37:37;8.90;69.90
63047;DHT22;62025;39.238;9.126;2023-02-01T06:40:04;8.90;69.90
63047;DHT22;62025;39.238;9.126;2023-02-01T06:42:31;8.90;69.70
63047;DHT22;62025;39.238;9.126;2023-02-01T06:44:56;8.90;69.80
63047;DHT22;62025;39.238;9.126;2023-02-01T06:47:22;8.90;69.70
63047;DHT22;62025;39.238;9.126;2023-02-01T06:49:48;8.90;69.70
63047;DHT22;62025;39.238;9.126;2023-02-01T06:52:14;9.00;69.80
63047;DHT22;62025;39.238;9.126;2023-02-01T06:54:41;9.00;69.70
63047;DHT22;62025;39.238;9.126;2023-02-01T06:57:07;9.00;69.60
63047;DHT22;62025;39.238;9.126;2023-02-01T06:59:33;9.10;69.50
63047;DHT22;62025;39.238;9.126;2023-02-01T07:01:59;9.30;69.00
63047;DHT22;62025;39.238;9.126;2023-02-01T07:04:25;9.50;68.50
63047;DHT22;62025;39.238;9.126;2023-02-01T07:06:51;9.60;68.20
63047;DHT22;62025;39.238;9.126;2023-02-01T07:09:17;9.80;67.70
63047;DHT22;62025;39.238;9.126;2023-02-01T07:11:43;9.90;67.40
63047;DHT22;62025;39.238;9.126;2023-02-01T07:14:12;10.10;67.00
63047;DHT22;62025;39.238;9.126;2023-02-01T07:16:38;10.10;66.90
63047;DHT22;62025;39.238;9.126;2023-02-01T07:19:04;10.30;66.70
63047;DHT22;62025;39.238;9.126;2023-02-01T07:21:31;10.40;66.20
63047;DHT22;62025;39.238;9.126;2023-02-01T07:23:58;10.50;66.10
63047;DHT22;62025;39.238;9.126;2023-02-01T07:26:24;10.50;65.90
63047;DHT22;62025;39.238;9.126;2023-02-01T07:28:50;10.70;65.60
63047;DHT22;62025;39.238;9.126;2023-02-01T07:31:18;10.70;65.90
63047;DHT22;62025;39.238;9.126;2023-02-01T07:33:47;10.70;65.40
63047;DHT22;62025;39.238;9.126;2023-02-01T07:36:17;10.70;64.50
63047;DHT22;62025;39.238;9.126;2023-02-01T07:38:44;10.80;64.40
63047;DHT22;62025;39.238;9.126;2023-02-01T07:41:12;10.80;64.40
63047;DHT22;62025;39.238;9.126;2023-02-01T07:43:38;10.90;64.20
63047;DHT22;62025;39.238;9.126;2023-02-01T07:46:05;11.20;64.00
63047;DHT22;62025;39.238;9.126;2023-02-01T07:48:32;11.30;63.00
63047;DHT22;62025;39.238;9.126;2023-02-01T07:51:04;11.50;62.70
63047;DHT22;62025;39.238;9.126;2023-02-01T07:53:34;11.60;62.40
63047;DHT22;62025;39.238;9.126;2023-02-01T07:56:01;11.80;61.90
63047;DHT22;62025;39.238;9.126;2023-02-01T07:58:28;12.10;61.30
63047;DHT22;62025;39.238;9.126;2023-02-01T08:00:55;12.30;60.70
63047;DHT22;62025;39.238;9.126;2023-02-01T08:03:40;12.30;60.30
63047;DHT22;62025;39.238;9.126;2023-02-01T08:06:06;12.70;59.70
63047;DHT22;62025;39.238;9.126;2023-02-01T08:08:32;12.80;59.30
63047;DHT22;62025;39.238;9.126;2023-02-01T08:10:59;12.90;58.80
63047;DHT22;62025;39.238;9.126;2023-02-01T08:13:26;13.00;58.50
63047;DHT22;62025;39.238;9.126;2023-02-01T08:16:00;13.20;57.90
63047;DHT22;62025;39.238;9.126;2023-02-01T08:18:28;13.40;57.50
63047;DHT22;62025;39.238;9.126;2023-02-01T08:20:54;13.60;57.00
63047;DHT22;62025;39.238;9.126;2023-02-01T08:23:21;13.80;56.40
63047;DHT22;62025;39.238;9.126;2023-02-01T08:25:47;13.90;56.10
63047;DHT22;62025;39.238;9.126;2023-02-01T08:28:14;14.00;55.80
63047;DHT22;62025;39.238;9.126;2023-02-01T08:30:41;14.20;55.50
63047;DHT22;62025;39.238;9.126;2023-02-01T08:33:09;14.30;55.20
63047;DHT22;62025;39.238;9.126;2023-02-01T08:35:37;14.40;54.70
63047;DHT22;62025;39.238;9.126;2023-02-01T08:38:04;14.70;54.40
63047;DHT22;62025;39.238;9.126;2023-02-01T08:40:32;14.80;54.00
63047;DHT22;62025;39.238;9.126;2023-02-01T08:42:58;14.80;53.70
63047;DHT22;62025;39.238;9.126;2023-02-01T08:45:27;14.90;53.40
63047;DHT22;62025;39.238;9.126;2023-02-01T08:47:56;15.10;53.30
63047;DHT22;62025;39.238;9.126;2023-02-01T08:50:23;15.20;52.80
63047;DHT22;62025;39.238;9.126;2023-02-01T08:52:50;15.30;52.80
63047;DHT22;62025;39.238;9.126;2023-02-01T08:55:16;15.30;52.40
63047;DHT22;62025;39.238;9.126;2023-02-01T08:57:43;15.50;52.30
63047;DHT22;62025;39.238;9.126;2023-02-01T09:00:12;15.60;52.30
63047;DHT22;62025;39.238;9.126;2023-02-01T09:02:41;15.80;52.20
63047;DHT22;62025;39.238;9.126;2023-02-01T09:05:07;15.90;51.80
63047;DHT22;62025;39.238;9.126;2023-02-01T09:07:34;15.90;51.50
63047;DHT22;62025;39.238;9.126;2023-02-01T09:10:01;15.90;51.70
63047;DHT22;62025;39.238;9.126;2023-02-01T09:12:28;16.00;51.60
63047;DHT22;62025;39.238;9.126;2023-02-01T09:14:56;16.10;51.70
63047;DHT22;62025;39.238;9.126;2023-02-01T09:17:26;16.30;51.40
63047;DHT22;62025;39.238;9.126;2023-02-01T09:19:52;16.30;51.20
63047;DHT22;62025;39.238;9.126;2023-02-01T09:22:18;16.50;51.30
63047;DHT22;62025;39.238;9.126;2023-02-01T09:24:45;16.60;51.00
63047;DHT22;62025;39.238;9.126;2023-02-01T09:27:11;16.80;50.60
63047;DHT22;62025;39.238;9.126;2023-02-01T09:29:37;16.80;50.50
63047;DHT22;62025;39.238;9.126;2023-02-01T09:32:03;16.90;50.70
63047;DHT22;62025;39.238;9.126;2023-02-01T09:34:29;17.00;50.20
63047;DHT22;62025;39.238;9.126;2023-02-01T09:36:55;17.10;50.50
63047;DHT22;62025;39.238;9.126;2023-02-01T09:39:21;17.10;50.50
63047;DHT22;62025;39.238;9.126;2023-02-01T09:42:04;17.20;50.40
63047;DHT22;62025;39.238;9.126;2023-02-01T09:44:52;17.30;49.90
63047;DHT22;62025;39.238;9.126;2023-02-01T09:47:46;17.40;49.90
63047;DHT22;62025;39.238;9.126;2023-02-01T09:50:19;17.50;49.60
63047;DHT22;62025;39.238;9.126;2023-02-01T09:55:49;17.70;49.70
63047;DHT22;62025;39.238;9.126;2023-02-01T09:58:22;17.80;49.50
63047;DHT22;62025;39.238;9.126;2023-02-01T10:00:55;17.90;49.40
63047;DHT22;62025;39.238;9.126;2023-02-01T10:03:24;17.90;49.20
63047;DHT22;62025;39.238;9.126;2023-02-01T10:08:30;18.10;48.80
63047;DHT22;62025;39.238;9.126;2023-02-01T10:20:16;18.30;48.10
63047;DHT22;62025;39.238;9.126;2023-02-01T10:22:52;18.20;48.40
63047;DHT22;62025;39.238;9.126;2023-02-01T10:25:47;18.30;48.20
63047;DHT22;62025;39.238;9.126;2023-02-01T10:28:20;18.20;48.20
63047;DHT22;62025;39.238;9.126;2023-02-01T10:30:48;18.30;48.00
63047;DHT22;62025;39.238;9.126;2023-02-01T10:33:30;18.50;47.90
63047;DHT22;62025;39.238;9.126;2023-02-01T10:38:53;18.50;48.20
63047;DHT22;62025;39.238;9.126;2023-02-01T10:41:23;18.60;48.30
63047;DHT22;62025;39.238;9.126;2023-02-01T10:43:54;18.70;48.10
63047;DHT22;62025;39.238;9.126;2023-02-01T10:46:25;18.60;47.80
63047;DHT22;62025;39.238;9.126;2023-02-01T10:48:55;18.40;48.20
63047;DHT22;62025;39.238;9.126;2023-02-01T10:51:26;18.20;48.50
63047;DHT22;62025;39.238;9.126;2023-02-01T10:54:16;18.00;48.90
63047;DHT22;62025;39.238;9.126;2023-02-01T10:56:46;18.10;48.60
63047;DHT22;62025;39.238;9.126;2023-02-01T10:59:23;18.20;48.50
63047;DHT22;62025;39.238;9.126;2023-02-01T11:02:01;18.30;47.70
63047;DHT22;62025;39.238;9.126;2023-02-01T11:04:39;18.20;47.90
63047;DHT22;62025;39.238;9.126;2023-02-01T11:07:12;18.20;47.70
63047;DHT22;62025;39.238;9.126;2023-02-01T11:09:52;18.20;48.10
63047;DHT22;62025;39.238;9.126;2023-02-01T11:12:37;18.10;48.20
63047;DHT22;62025;39.238;9.126;2023-02-01T11:17:46;17.60;48.80
63047;DHT22;62025;39.238;9.126;2023-02-01T11:22:57;17.40;48.50
63047;DHT22;62025;39.238;9.126;2023-02-01T11:25:24;17.20;48.50
63047;DHT22;62025;39.238;9.126;2023-02-01T11:27:53;17.00;49.30
63047;DHT22;62025;39.238;9.126;2023-02-01T11:30:33;16.90;49.50
63047;DHT22;62025;39.238;9.126;2023-02-01T11:33:04;16.90;50.30
63047;DHT22;62025;39.238;9.126;2023-02-01T11:35:31;16.90;50.80
63047;DHT22;62025;39.238;9.126;2023-02-01T11:37:58;16.80;50.30
63047;DHT22;62025;39.238;9.126;2023-02-01T11:40:34;16.80;50.10
63047;DHT22;62025;39.238;9.126;2023-02-01T11:43:25;16.70;50.60
63047;DHT22;62025;39.238;9.126;2023-02-01T11:48:29;16.60;52.10
63047;DHT22;62025;39.238;9.126;2023-02-01T12:03:06;16.40;52.10
63047;DHT22;62025;39.238;9.126;2023-02-01T12:06:08;16.40;52.50
63047;DHT22;62025;39.238;9.126;2023-02-01T12:12:28;16.30;52.50
63047;DHT22;62025;39.238;9.126;2023-02-01T12:15:12;16.30;52.20
63047;DHT22;62025;39.238;9.126;2023-02-01T12:18:08;16.30;52.40
63047;DHT22;62025;39.238;9.126;2023-02-01T12:26:51;16.10;53.10
63047;DHT22;62025;39.238;9.126;2023-02-01T12:38:35;16.00;53.10
63047;DHT22;62025;39.238;9.126;2023-02-01T12:41:33;16.00;53.40
63047;DHT22;62025;39.238;9.126;2023-02-01T12:50:21;15.90;53.50
63047;DHT22;62025;39.238;9.126;2023-02-01T12:52:55;15.90;53.90
63047;DHT22;62025;39.238;9.126;2023-02-01T12:55:35;15.90;54.10
63047;DHT22;62025;39.238;9.126;2023-02-01T12:58:20;15.80;54.20
63047;DHT22;62025;39.238;9.126;2023-02-01T13:01:17;15.80;54.40
63047;DHT22;62025;39.238;9.126;2023-02-01T13:04:10;15.80;55.00
63047;DHT22;62025;39.238;9.126;2023-02-01T13:06:55;15.90;55.60
63047;DHT22;62025;39.238;9.126;2023-02-01T13:09:30;15.90;55.80
63047;DHT22;62025;39.238;9.126;2023-02-01T13:12:04;15.80;55.60
63047;DHT22;62025;39.238;9.126;2023-02-01T13:14:48;15.80;55.60
63047;DHT22;62025;39.238;9.126;2023-02-01T13:17:27;15.80;55.70
63047;DHT22;62025;39.238;9.126;2023-02-01T13:20:17;15.80;55.60
63047;DHT22;62025;39.238;9.126;2023-02-01T13:22:54;15.80;55.60
63047;DHT22;62025;39.238;9.126;2023-02-01T13:28:12;15.80;55.40
63047;DHT22;62025;39.238;9.126;2023-02-01T13:43:14;15.70;55.60
63047;DHT22;62025;39.238;9.126;2023-02-01T13:45:52;15.70;55.60
63047;DHT22;62025;39.238;9.126;2023-02-01T13:48:39;15.70;55.70
63047;DHT22;62025;39.238;9.126;2023-02-01T13:51:06;15.70;55.50
63047;DHT22;62025;39.238;9.126;2023-02-01T13:53:35;15.70;55.60
63047;DHT22;62025;39.238;9.126;2023-02-01T13:56:15;15.70;55.80
63047;DHT22;62025;39.238;9.126;2023-02-01T13:58:44;15.70;55.80
63047;DHT22;62025;39.238;9.126;2023-02-01T14:01:32;15.60;55.90
63047;DHT22;62025;39.238;9.126;2023-02-01T14:04:04;15.60;56.30
63047;DHT22;62025;39.238;9.126;2023-02-01T14:09:17;15.60;56.10
63047;DHT22;62025;39.238;9.126;2023-02-01T14:12:43;15.60;56.10
63047;DHT22;62025;39.238;9.126;2023-02-01T14:15:27;15.60;56.50
63047;DHT22;62025;39.238;9.126;2023-02-01T14:17:53;15.60;56.60
63047;DHT22;62025;39.238;9.126;2023-02-01T14:20:42;15.60;56.40
63047;DHT22;62025;39.238;9.126;2023-02-01T14:23:16;15.50;56.60
63047;DHT22;62025;39.238;9.126;2023-02-01T14:25:44;15.50;57.90
63047;DHT22;62025;39.238;9.126;2023-02-01T14:28:26;15.60;59.60
63047;DHT22;62025;39.238;9.126;2023-02-01T14:30:56;15.60;59.90
63047;DHT22;62025;39.238;9.126;2023-02-01T14:33:25;15.70;57.90
63047;DHT22;62025;39.238;9.126;2023-02-01T14:36:06;15.70;57.30
63047;DHT22;62025;39.238;9.126;2023-02-01T14:38:35;15.70;56.70
63047;DHT22;62025;39.238;9.126;2023-02-01T14:41:25;15.70;55.70
63047;DHT22;62025;39.238;9.126;2023-02-01T14:47:03;15.50;55.90
63047;DHT22;62025;39.238;9.126;2023-02-01T14:49:31;15.40;56.10
63047;DHT22;62025;39.238;9.126;2023-02-01T14:51:59;15.40;56.10
63047;DHT22;62025;39.238;9.126;2023-02-01T14:54:28;15.30;56.00
63047;DHT22;62025;39.238;9.126;2023-02-01T14:56:55;15.30;56.00
63047;DHT22;62025;39.238;9.126;2023-02-01T14:59:24;15.30;55.90
63047;DHT22;62025;39.238;9.126;2023-02-01T15:01:55;15.30;56.00
63047;DHT22;62025;39.238;9.126;2023-02-01T15:04:25;15.30;55.80
63047;DHT22;62025;39.238;9.126;2023-02-01T15:07:13;15.30;55.80
63047;DHT22;62025;39.238;9.126;2023-02-01T15:09:44;15.30;56.00
63047;DHT22;62025;39.238;9.126;2023-02-01T15:14:40;15.30;55.80
63047;DHT22;62025;39.238;9.126;2023-02-01T15:17:29;15.30;56.20
63047;DHT22;62025;39.238;9.126;2023-02-01T15:22:41;15.20;55.80
63047;DHT22;62025;39.238;9.126;2023-02-01T15:25:28;15.20;55.60
63047;DHT22;62025;39.238;9.126;2023-02-01T15:27:56;15.10;55.90
63047;DHT22;62025;39.238;9.126;2023-02-01T15:30:28;15.10;55.80
63047;DHT22;62025;39.238;9.126;2023-02-01T15:35:46;15.00;55.40
63047;DHT22;62025;39.238;9.126;2023-02-01T15:41:03;15.10;55.80
63047;DHT22;62025;39.238;9.126;2023-02-01T15:44:17;15.00;55.20
63047;DHT22;62025;39.238;9.126;2023-02-01T15:46:30;15.00;55.40
63047;DHT22;62025;39.238;9.126;2023-02-01T15:48:56;15.00;55.30
63047;DHT22;62025;39.238;9.126;2023-02-01T15:51:25;14.90;55.60
63047;DHT22;62025;39.238;9.126;2023-02-01T15:54:04;15.00;55.90
63047;DHT22;62025;39.238;9.126;2023-02-01T15:56:38;15.00;55.80
63047;DHT22;62025;39.238;9.126;2023-02-01T15:59:17;15.00;55.90
63047;DHT22;62025;39.238;9.126;2023-02-01T16:01:45;14.90;56.30
63047;DHT22;62025;39.238;9.126;2023-02-01T16:04:21;14.90;56.00
63047;DHT22;62025;39.238;9.126;2023-02-01T16:06:56;14.90;56.40
63047;DHT22;62025;39.238;9.126;2023-02-01T16:09:37;14.90;56.50
63047;DHT22;62025;39.238;9.126;2023-02-01T16:15:04;14.90;56.60
63047;DHT22;62025;39.238;9.126;2023-02-01T16:17:31;14.90;56.70
63047;DHT22;62025;39.238;9.126;2023-02-01T16:19:57;14.80;57.10
63047;DHT22;62025;39.238;9.126;2023-02-01T16:22:26;14.80;58.10
63047;DHT22;62025;39.238;9.126;2023-02-01T16:24:52;14.80;58.40
63047;DHT22;62025;39.238;9.126;2023-02-01T16:27:18;14.80;58.90
63047;DHT22;62025;39.238;9.126;2023-02-01T16:29:44;14.80;59.20
63047;DHT22;62025;39.238;9.126;2023-02-01T16:32:18;14.80;59.50
63047;DHT22;62025;39.238;9.126;2023-02-01T16:34:46;14.80;60.10
63047;DHT22;62025;39.238;9.126;2023-02-01T16:37:16;14.70;60.70
63047;DHT22;62025;39.238;9.126;2023-02-01T16:39:45;14.70;61.10
63047;DHT22;62025;39.238;9.126;2023-02-01T16:42:13;14.70;61.20
63047;DHT22;62025;39.238;9.126;2023-02-01T16:44:40;14.60;61.30
63047;DHT22;62025;39.238;9.126;2023-02-01T16:47:14;14.60;61.30
63047;DHT22;62025;39.238;9.126;2023-02-01T16:49:43;14.60;61.40
63047;DHT22;62025;39.238;9.126;2023-02-01T16:52:16;14.60;61.60
63047;DHT22;62025;39.238;9.126;2023-02-01T16:54:44;14.60;62.00
63047;DHT22;62025;39.238;9.126;2023-02-01T16:57:15;14.60;62.30
63047;DHT22;62025;39.238;9.126;2023-02-01T16:59:42;14.60;62.60
63047;DHT22;62025;39.238;9.126;2023-02-01T17:02:17;14.60;62.90
63047;DHT22;62025;39.238;9.126;2023-02-01T17:04:47;14.60;63.00
63047;DHT22;62025;39.238;9.126;2023-02-01T17:07:16;14.60;63.20
63047;DHT22;62025;39.238;9.126;2023-02-01T17:09:44;14.60;63.30
63047;DHT22;62025;39.238;9.126;2023-02-01T17:12:31;14.60;63.30
63047;DHT22;62025;39.238;9.126;2023-02-01T17:14:59;14.60;63.40
63047;DHT22;62025;39.238;9.126;2023-02-01T17:17:32;14.50;63.40
63047;DHT22;62025;39.238;9.126;2023-02-01T17:20:00;14.50;63.50
63047;DHT22;62025;39.238;9.126;2023-02-01T17:22:26;14.40;63.50
63047;DHT22;62025;39.238;9.126;2023-02-01T17:24:52;14.50;63.60
63047;DHT22;62025;39.238;9.126;2023-02-01T17:27:18;14.40;63.50
63047;DHT22;62025;39.238;9.126;2023-02-01T17:29:44;14.40;63.40
63047;DHT22;62025;39.238;9.126;2023-02-01T17:32:17;14.30;63.40
63047;DHT22;62025;39.238;9.126;2023-02-01T17:34:45;14.30;63.60
63047;DHT22;62025;39.238;9.126;2023-02-01T17:37:26;14.30;63.60
63047;DHT22;62025;39.238;9.126;2023-02-01T17:39:55;14.30;63.70
63047;DHT22;62025;39.238;9.126;2023-02-01T17:42:23;14.30;63.80
63047;DHT22;62025;39.238;9.126;2023-02-01T17:45:01;14.20;63.90
63047;DHT22;62025;39.238;9.126;2023-02-01T17:47:47;14.30;63.80
63047;DHT22;62025;39.238;9.126;2023-02-01T17:50:13;14.20;63.90
63047;DHT22;62025;39.238;9.126;2023-02-01T17:52:40;14.20;64.00
63047;DHT22;62025;39.238;9.126;2023-02-01T17:55:18;14.10;64.00
63047;DHT22;62025;39.238;9.126;2023-02-01T17:57:48;14.00;64.30
63047;DHT22;62025;39.238;9.126;2023-02-01T18:00:15;14.00;64.30
63047;DHT22;62025;39.238;9.126;2023-02-01T18:02:43;14.10;64.40
63047;DHT22;62025;39.238;9.126;2023-02-01T18:05:23;14.00;64.40